sensor_id;sensor_type;location;lat;lon;timestamp;P1;durP1;ratioP1;P2;durP2;ratioP2
18867;SDS011;9563;49.240;9.088;2023-12-07T05:01:56;27.30;;;13.53;;
18867;SDS011;9563;49.240;9.088;2023-12-07T05:04:22;39.30;;;14.20;;
18867;SDS011;9563;49.240;9.088;2023-12-07T05:06:49;42.57;;;15.27;;
18867;SDS011;9563;49.240;9.088;2023-12-07T05:09:17;49.27;;;14.60;;
18867;SDS011;9563;49.240;9.088;2023-12-07T05:11:44;64.87;;;16.07;;
18867;SDS011;9563;49.240;9.088;2023-12-07T05:14:11;40.70;;;13.30;;
18867;SDS011;9563;49.240;9.088;2023-12-07T05:16:37;49.70;;;13.67;;
18867;SDS011;9563;49.240;9.088;2023-12-07T05:19:06;57.23;;;14.73;;
18867;SDS011;9563;49.240;9.088;2023-12-07T05:21:33;35.77;;;15.20;;
18867;SDS011;9563;49.240;9.088;2023-12-07T05:24:00;33.97;;;14.47;;
18867;SDS011;9563;49.240;9.088;2023-12-07T05:26:27;23.53;;;12.33;;
18867;SDS011;9563;49.240;9.088;2023-12-07T05:28:57;30.13;;;12.90;;
18867;SDS011;9563;49.240;9.088;2023-12-07T05:31:24;32.93;;;13.33;;
18867;SDS011;9563;49.240;9.088;2023-12-07T05:33:52;46.43;;;14.30;;
18867;SDS011;9563;49.240;9.088;2023-12-07T05:36:20;25.03;;;12.83;;
18867;SDS011;9563;49.240;9.088;2023-12-07T05:38:47;23.47;;;12.07;;
18867;SDS011;9563;49.240;9.088;2023-12-07T05:41:14;22.43;;;12.43;;
18867;SDS011;9563;49.240;9.088;2023-12-07T05:43:42;25.00;;;12.60;;
18867;SDS011;9563;49.240;9.088;2023-12-07T05:46:09;26.00;;;12.80;;
18867;SDS011;9563;49.240;9.088;2023-12-07T05:48:36;27.63;;;13.07;;
18867;SDS011;9563;49.240;9.088;2023-12-07T05:51:03;58.67;;;14.73;;
18867;SDS011;9563;49.240;9.088;2023-12-07T05:53:31;34.73;;;15.83;;
18867;SDS011;9563;49.240;9.088;2023-12-07T05:55:58;78.80;;;25.40;;
18867;SDS011;9563;49.240;9.088;2023-12-07T05:58:25;71.37;;;23.93;;
18867;SDS011;9563;49.240;9.088;2023-12-07T06:00:52;42.97;;;20.40;;
18867;SDS011;9563;49.240;9.088;2023-12-07T06:03:19;56.37;;;17.87;;
18867;SDS011;9563;49.240;9.088;2023-12-07T06:05:46;49.40;;;15.73;;
18867;SDS011;9563;49.240;9.088;2023-12-07T06:08:13;38.57;;;15.90;;
18867;SDS011;9563;49.240;9.088;2023-12-07T06:10:41;35.90;;;15.43;;
18867;SDS011;9563;49.240;9.088;2023-12-07T06:13:08;34.37;;;15.23;;
18867;SDS011;9563;49.240;9.088;2023-12-07T06:15:35;37.40;;;15.70;;
18867;SDS011;9563;49.240;9.088;2023-12-07T06:18:02;38.43;;;15.00;;
18867;SDS011;9563;49.240;9.088;2023-12-07T06:20:29;44.13;;;17.27;;
18867;SDS011;9563;49.240;9.088;2023-12-07T06:22:56;71.40;;;17.73;;
18867;SDS011;9563;49.240;9.088;2023-12-07T06:25:23;82.23;;;19.57;;
18867;SDS011;9563;49.240;9.088;2023-12-07T06:27:52;35.70;;;14.87;;
18867;SDS011;9563;49.240;9.088;2023-12-07T06:30:19;44.97;;;15.57;;
18867;SDS011;9563;49.240;9.088;2023-12-07T06:32:46;41.20;;;17.00;;
18867;SDS011;9563;49.240;9.088;2023-12-07T06:35:13;35.07;;;14.83;;
18867;SDS011;9563;49.240;9.088;2023-12-07T06:37:41;67.13;;;17.17;;
18867;SDS011;9563;49.240;9.088;2023-12-07T06:40:08;53.50;;;17.00;;
18867;SDS011;9563;49.240;9.088;2023-12-07T06:42:36;43.97;;;16.30;;
18867;SDS011;9563;49.240;9.088;2023-12-07T06:45:05;40.63;;;16.13;;
18867;SDS011;9563;49.240;9.088;2023-12-07T06:47:35;40.53;;;14.03;;
18867;SDS011;9563;49.240;9.088;2023-12-07T06:50:03;54.10;;;16.73;;
18867;SDS011;9563;49.240;9.088;2023-12-07T06:52:33;42.23;;;15.13;;
18867;SDS011;9563;49.240;9.088;2023-12-07T06:55:00;53.33;;;16.43;;
18867;SDS011;9563;49.240;9.088;2023-12-07T06:57:27;45.57;;;16.87;;
18867;SDS011;9563;49.240;9.088;2023-12-07T06:59:54;39.67;;;15.87;;
18867;SDS011;9563;49.240;9.088;2023-12-07T07:02:22;46.87;;;16.97;;
18867;SDS011;9563;49.240;9.088;2023-12-07T07:04:49;54.20;;;17.63;;
18867;SDS011;9563;49.240;9.088;2023-12-07T07:07:16;36.80;;;16.23;;
18867;SDS011;9563;49.240;9.088;2023-12-07T07:09:44;49.53;;;16.80;;
18867;SDS011;9563;49.240;9.088;2023-12-07T07:12:11;36.37;;;16.27;;
18867;SDS011;9563;49.240;9.088;2023-12-07T07:14:38;44.43;;;17.03;;
18867;SDS011;9563;49.240;9.088;2023-12-07T07:17:05;43.83;;;17.03;;
18867;SDS011;9563;49.240;9.088;2023-12-07T07:19:34;42.47;;;16.83;;
18867;SDS011;9563;49.240;9.088;2023-12-07T07:22:01;46.33;;;16.57;;
18867;SDS011;9563;49.240;9.088;2023-12-07T07:24:28;41.77;;;17.00;;
18867;SDS011;9563;49.240;9.088;2023-12-07T07:26:55;57.57;;;18.67;;
18867;SDS011;9563;49.240;9.088;2023-12-07T07:29:22;52.77;;;19.53;;
18867;SDS011;9563;49.240;9.088;2023-12-07T07:31:48;45.70;;;16.30;;
18867;SDS011;9563;49.240;9.088;2023-12-07T07:34:15;40.90;;;17.10;;
18867;SDS011;9563;49.240;9.088;2023-12-07T07:36:43;49.87;;;17.93;;
18867;SDS011;9563;49.240;9.088;2023-12-07T07:39:11;46.07;;;17.80;;
18867;SDS011;9563;49.240;9.088;2023-12-07T07:41:39;54.97;;;20.47;;
18867;SDS011;9563;49.240;9.088;2023-12-07T07:44:06;67.53;;;23.10;;
18867;SDS011;9563;49.240;9.088;2023-12-07T07:46:32;54.40;;;22.87;;
18867;SDS011;9563;49.240;9.088;2023-12-07T07:48:59;67.33;;;24.07;;
18867;SDS011;9563;49.240;9.088;2023-12-07T07:51:29;58.03;;;22.40;;
18867;SDS011;9563;49.240;9.088;2023-12-07T07:53:58;55.50;;;21.87;;
18867;SDS011;9563;49.240;9.088;2023-12-07T07:56:25;56.03;;;21.07;;
18867;SDS011;9563;49.240;9.088;2023-12-07T07:58:52;52.43;;;20.47;;
18867;SDS011;9563;49.240;9.088;2023-12-07T08:01:19;53.23;;;20.70;;
18867;SDS011;9563;49.240;9.088;2023-12-07T08:03:46;53.03;;;18.67;;
18867;SDS011;9563;49.240;9.088;2023-12-07T08:06:13;50.30;;;17.27;;
18867;SDS011;9563;49.240;9.088;2023-12-07T08:08:40;41.67;;;18.00;;
18867;SDS011;9563;49.240;9.088;2023-12-07T08:11:09;46.13;;;18.00;;
18867;SDS011;9563;49.240;9.088;2023-12-07T08:13:36;45.23;;;17.43;;
18867;SDS011;9563;49.240;9.088;2023-12-07T08:16:03;47.77;;;17.17;;
18867;SDS011;9563;49.240;9.088;2023-12-07T08:18:34;40.60;;;17.33;;
18867;SDS011;9563;49.240;9.088;2023-12-07T08:21:03;43.37;;;17.07;;
18867;SDS011;9563;49.240;9.088;2023-12-07T08:23:33;44.13;;;16.73;;
18867;SDS011;9563;49.240;9.088;2023-12-07T08:26:00;37.97;;;17.13;;
18867;SDS011;9563;49.240;9.088;2023-12-07T08:28:29;40.83;;;18.10;;
18867;SDS011;9563;49.240;9.088;2023-12-07T08:30:56;45.07;;;18.67;;
18867;SDS011;9563;49.240;9.088;2023-12-07T08:33:23;52.90;;;19.70;;
18867;SDS011;9563;49.240;9.088;2023-12-07T08:35:50;48.13;;;19.30;;
18867;SDS011;9563;49.240;9.088;2023-12-07T08:38:20;46.60;;;20.17;;
18867;SDS011;9563;49.240;9.088;2023-12-07T08:40:48;48.57;;;21.10;;
18867;SDS011;9563;49.240;9.088;2023-12-07T08:43:15;53.03;;;21.80;;
18867;SDS011;9563;49.240;9.088;2023-12-07T08:45:43;49.80;;;20.37;;
18867;SDS011;9563;49.240;9.088;2023-12-07T08:48:10;48.63;;;20.00;;
18867;SDS011;9563;49.240;9.088;2023-12-07T08:50:37;40.10;;;17.90;;
18867;SDS011;9563;49.240;9.088;2023-12-07T08:53:04;40.67;;;16.73;;
18867;SDS011;9563;49.240;9.088;2023-12-07T08:55:31;40.80;;;16.37;;
18867;SDS011;9563;49.240;9.088;2023-12-07T08:57:58;36.90;;;15.73;;
18867;SDS011;9563;49.240;9.088;2023-12-07T09:00:25;40.87;;;16.17;;
18867;SDS011;9563;49.240;9.088;2023-12-07T09:02:54;63.63;;;23.87;;
18867;SDS011;9563;49.240;9.088;2023-12-07T09:05:20;47.67;;;20.00;;
18867;SDS011;9563;49.240;9.088;2023-12-07T09:07:47;41.83;;;18.07;;
18867;SDS011;9563;49.240;9.088;2023-12-07T09:10:14;44.20;;;17.70;;
18867;SDS011;9563;49.240;9.088;2023-12-07T09:12:41;42.87;;;18.30;;
18867;SDS011;9563;49.240;9.088;2023-12-07T09:15:09;50.90;;;20.80;;
18867;SDS011;9563;49.240;9.088;2023-12-07T09:17:36;50.10;;;20.70;;
18867;SDS011;9563;49.240;9.088;2023-12-07T09:20:06;52.47;;;20.50;;
18867;SDS011;9563;49.240;9.088;2023-12-07T09:22:37;49.83;;;19.27;;
18867;SDS011;9563;49.240;9.088;2023-12-07T09:25:04;45.03;;;18.63;;
18867;SDS011;9563;49.240;9.088;2023-12-07T09:27:33;45.00;;;19.33;;
18867;SDS011;9563;49.240;9.088;2023-12-07T09:30:02;49.37;;;19.37;;
18867;SDS011;9563;49.240;9.088;2023-12-07T09:32:30;43.50;;;18.77;;
18867;SDS011;9563;49.240;9.088;2023-12-07T09:34:57;43.23;;;18.90;;
18867;SDS011;9563;49.240;9.088;2023-12-07T09:37:25;59.30;;;20.53;;
18867;SDS011;9563;49.240;9.088;2023-12-07T09:39:52;44.30;;;18.87;;
18867;SDS011;9563;49.240;9.088;2023-12-07T09:42:19;70.17;;;22.73;;
18867;SDS011;9563;49.240;9.088;2023-12-07T09:44:46;61.17;;;22.73;;
18867;SDS011;9563;49.240;9.088;2023-12-07T09:47:13;60.73;;;22.43;;
18867;SDS011;9563;49.240;9.088;2023-12-07T09:49:40;71.97;;;21.87;;
18867;SDS011;9563;49.240;9.088;2023-12-07T09:52:07;62.93;;;21.17;;
18867;SDS011;9563;49.240;9.088;2023-12-07T09:54:41;92.63;;;23.10;;
18867;SDS011;9563;49.240;9.088;2023-12-07T09:57:08;49.83;;;20.40;;
18867;SDS011;9563;49.240;9.088;2023-12-07T09:59:35;54.13;;;20.27;;
18867;SDS011;9563;49.240;9.088;2023-12-07T10:02:02;76.17;;;22.83;;
18867;SDS011;9563;49.240;9.088;2023-12-07T10:04:30;66.30;;;24.30;;
18867;SDS011;9563;49.240;9.088;2023-12-07T10:06:57;61.00;;;22.23;;
18867;SDS011;9563;49.240;9.088;2023-12-07T10:09:23;60.57;;;23.20;;
18867;SDS011;9563;49.240;9.088;2023-12-07T10:11:57;60.30;;;22.33;;
18867;SDS011;9563;49.240;9.088;2023-12-07T10:14:28;57.00;;;22.07;;
18867;SDS011;9563;49.240;9.088;2023-12-07T10:16:55;66.87;;;24.77;;
18867;SDS011;9563;49.240;9.088;2023-12-07T10:19:23;69.73;;;24.87;;
18867;SDS011;9563;49.240;9.088;2023-12-07T10:21:50;67.17;;;25.27;;
18867;SDS011;9563;49.240;9.088;2023-12-07T10:24:18;68.93;;;24.90;;
18867;SDS011;9563;49.240;9.088;2023-12-07T10:26:47;73.63;;;27.70;;
18867;SDS011;9563;49.240;9.088;2023-12-07T10:29:16;62.97;;;23.80;;
18867;SDS011;9563;49.240;9.088;2023-12-07T10:31:43;71.53;;;25.73;;
18867;SDS011;9563;49.240;9.088;2023-12-07T10:34:12;57.33;;;23.23;;
18867;SDS011;9563;49.240;9.088;2023-12-07T10:36:39;59.93;;;24.87;;
18867;SDS011;9563;49.240;9.088;2023-12-07T10:39:06;71.73;;;27.17;;
18867;SDS011;9563;49.240;9.088;2023-12-07T10:41:33;93.90;;;28.60;;
18867;SDS011;9563;49.240;9.088;2023-12-07T10:44:01;72.30;;;28.10;;
18867;SDS011;9563;49.240;9.088;2023-12-07T10:46:34;85.10;;;29.60;;
18867;SDS011;9563;49.240;9.088;2023-12-07T10:49:03;123.40;;;37.80;;
18867;SDS011;9563;49.240;9.088;2023-12-07T10:51:31;132.13;;;39.27;;
18867;SDS011;9563;49.240;9.088;2023-12-07T10:54:04;116.93;;;37.57;;
18867;SDS011;9563;49.240;9.088;2023-12-07T10:56:35;122.03;;;36.37;;
18867;SDS011;9563;49.240;9.088;2023-12-07T10:59:07;134.47;;;39.30;;
18867;SDS011;9563;49.240;9.088;2023-12-07T11:01:38;91.00;;;29.73;;
18867;SDS011;9563;49.240;9.088;2023-12-07T11:04:05;71.50;;;26.80;;
18867;SDS011;9563;49.240;9.088;2023-12-07T11:06:33;64.93;;;24.57;;
18867;SDS011;9563;49.240;9.088;2023-12-07T11:09:01;64.90;;;24.97;;
18867;SDS011;9563;49.240;9.088;2023-12-07T11:11:36;57.73;;;23.47;;
18867;SDS011;9563;49.240;9.088;2023-12-07T11:14:08;59.80;;;22.50;;
18867;SDS011;9563;49.240;9.088;2023-12-07T11:16:40;54.90;;;22.07;;
18867;SDS011;9563;49.240;9.088;2023-12-07T11:22:10;50.33;;;22.80;;
18867;SDS011;9563;49.240;9.088;2023-12-07T11:24:37;54.23;;;23.37;;
18867;SDS011;9563;49.240;9.088;2023-12-07T11:27:17;51.20;;;22.63;;
18867;SDS011;9563;49.240;9.088;2023-12-07T11:29:45;48.63;;;20.40;;
18867;SDS011;9563;49.240;9.088;2023-12-07T11:32:14;42.77;;;21.17;;
18867;SDS011;9563;49.240;9.088;2023-12-07T11:34:42;64.03;;;26.13;;
18867;SDS011;9563;49.240;9.088;2023-12-07T11:37:10;57.77;;;26.77;;
18867;SDS011;9563;49.240;9.088;2023-12-07T11:39:41;60.07;;;25.13;;
18867;SDS011;9563;49.240;9.088;2023-12-07T11:42:10;49.53;;;22.27;;
18867;SDS011;9563;49.240;9.088;2023-12-07T11:44:38;48.50;;;21.70;;
18867;SDS011;9563;49.240;9.088;2023-12-07T11:47:06;43.77;;;20.73;;
18867;SDS011;9563;49.240;9.088;2023-12-07T11:49:35;43.87;;;20.27;;
18867;SDS011;9563;49.240;9.088;2023-12-07T11:52:12;42.97;;;20.47;;
18867;SDS011;9563;49.240;9.088;2023-12-07T11:54:40;44.37;;;20.60;;
18867;SDS011;9563;49.240;9.088;2023-12-07T11:57:10;40.13;;;19.67;;
18867;SDS011;9563;49.240;9.088;2023-12-07T11:59:37;39.70;;;18.30;;
18867;SDS011;9563;49.240;9.088;2023-12-07T12:02:04;35.43;;;17.97;;
18867;SDS011;9563;49.240;9.088;2023-12-07T12:04:31;34.73;;;18.07;;
18867;SDS011;9563;49.240;9.088;2023-12-07T12:06:59;31.23;;;16.67;;
18867;SDS011;9563;49.240;9.088;2023-12-07T12:09:26;30.10;;;17.10;;
18867;SDS011;9563;49.240;9.088;2023-12-07T12:11:52;34.60;;;15.97;;
18867;SDS011;9563;49.240;9.088;2023-12-07T12:14:19;27.07;;;15.13;;
18867;SDS011;9563;49.240;9.088;2023-12-07T12:16:47;28.37;;;15.27;;
18867;SDS011;9563;49.240;9.088;2023-12-07T12:19:14;25.40;;;14.60;;
18867;SDS011;9563;49.240;9.088;2023-12-07T12:21:41;29.20;;;14.63;;
18867;SDS011;9563;49.240;9.088;2023-12-07T12:24:10;24.57;;;12.90;;
18867;SDS011;9563;49.240;9.088;2023-12-07T12:26:39;28.17;;;14.50;;
18867;SDS011;9563;49.240;9.088;2023-12-07T12:29:07;24.87;;;14.27;;
18867;SDS011;9563;49.240;9.088;2023-12-07T12:31:36;23.03;;;14.30;;
18867;SDS011;9563;49.240;9.088;2023-12-07T12:34:05;25.13;;;13.80;;
18867;SDS011;9563;49.240;9.088;2023-12-07T12:36:33;22.17;;;12.60;;
18867;SDS011;9563;49.240;9.088;2023-12-07T12:39:00;21.67;;;12.83;;
18867;SDS011;9563;49.240;9.088;2023-12-07T12:41:29;25.80;;;13.07;;
18867;SDS011;9563;49.240;9.088;2023-12-07T12:43:57;23.57;;;12.77;;
18867;SDS011;9563;49.240;9.088;2023-12-07T12:46:25;22.07;;;12.17;;
18867;SDS011;9563;49.240;9.088;2023-12-07T12:48:52;19.83;;;12.23;;
18867;SDS011;9563;49.240;9.088;2023-12-07T12:51:20;24.87;;;14.63;;
18867;SDS011;9563;49.240;9.088;2023-12-07T12:53:50;23.30;;;11.43;;
18867;SDS011;9563;49.240;9.088;2023-12-07T12:56:18;27.17;;;12.30;;
18867;SDS011;9563;49.240;9.088;2023-12-07T12:58:48;32.93;;;16.37;;
18867;SDS011;9563;49.240;9.088;2023-12-07T13:01:15;22.73;;;11.70;;
18867;SDS011;9563;49.240;9.088;2023-12-07T13:03:43;19.33;;;11.50;;
18867;SDS011;9563;49.240;9.088;2023-12-07T13:06:10;20.50;;;10.73;;
18867;SDS011;9563;49.240;9.088;2023-12-07T13:08:39;20.30;;;10.20;;
18867;SDS011;9563;49.240;9.088;2023-12-07T13:11:06;20.50;;;10.50;;
18867;SDS011;9563;49.240;9.088;2023-12-07T13:13:33;20.90;;;11.20;;
18867;SDS011;9563;49.240;9.088;2023-12-07T13:16:02;18.43;;;9.87;;
18867;SDS011;9563;49.240;9.088;2023-12-07T13:18:29;22.17;;;11.77;;
18867;SDS011;9563;49.240;9.088;2023-12-07T13:20:56;23.67;;;10.97;;
18867;SDS011;9563;49.240;9.088;2023-12-07T13:23:24;21.13;;;10.90;;
18867;SDS011;9563;49.240;9.088;2023-12-07T13:25:51;21.63;;;10.87;;
18867;SDS011;9563;49.240;9.088;2023-12-07T13:28:19;18.83;;;10.60;;
18867;SDS011;9563;49.240;9.088;2023-12-07T13:30:47;19.83;;;10.70;;
18867;SDS011;9563;49.240;9.088;2023-12-07T13:33:15;17.77;;;10.07;;
18867;SDS011;9563;49.240;9.088;2023-12-07T13:35:42;15.97;;;9.80;;
18867;SDS011;9563;49.240;9.088;2023-12-07T13:38:10;15.97;;;9.70;;
18867;SDS011;9563;49.240;9.088;2023-12-07T13:40:37;18.90;;;10.63;;
18867;SDS011;9563;49.240;9.088;2023-12-07T13:43:04;21.70;;;11.87;;
18867;SDS011;9563;49.240;9.088;2023-12-07T13:45:31;19.97;;;10.77;;
18867;SDS011;9563;49.240;9.088;2023-12-07T13:47:59;18.23;;;10.53;;
18867;SDS011;9563;49.240;9.088;2023-12-07T13:50:27;17.77;;;9.40;;
18867;SDS011;9563;49.240;9.088;2023-12-07T13:52:54;15.77;;;9.33;;
18867;SDS011;9563;49.240;9.088;2023-12-07T13:55:21;19.13;;;10.27;;
18867;SDS011;9563;49.240;9.088;2023-12-07T13:57:49;23.93;;;12.20;;
18867;SDS011;9563;49.240;9.088;2023-12-07T14:00:18;18.00;;;10.23;;
18867;SDS011;9563;49.240;9.088;2023-12-07T14:02:45;14.03;;;8.57;;
18867;SDS011;9563;49.240;9.088;2023-12-07T14:05:12;14.80;;;8.77;;
18867;SDS011;9563;49.240;9.088;2023-12-07T14:07:41;17.33;;;9.00;;
18867;SDS011;9563;49.240;9.088;2023-12-07T14:10:08;17.47;;;8.00;;
18867;SDS011;9563;49.240;9.088;2023-12-07T14:12:36;17.37;;;9.63;;
18867;SDS011;9563;49.240;9.088;2023-12-07T14:15:03;15.50;;;9.27;;
18867;SDS011;9563;49.240;9.088;2023-12-07T14:17:30;17.53;;;9.03;;
18867;SDS011;9563;49.240;9.088;2023-12-07T14:20:02;18.00;;;8.93;;
18867;SDS011;9563;49.240;9.088;2023-12-07T14:22:30;14.30;;;7.53;;
18867;SDS011;9563;49.240;9.088;2023-12-07T14:24:58;28.73;;;9.40;;
18867;SDS011;9563;49.240;9.088;2023-12-07T14:27:25;15.57;;;8.53;;
18867;SDS011;9563;49.240;9.088;2023-12-07T14:29:52;17.50;;;8.50;;
18867;SDS011;9563;49.240;9.088;2023-12-07T14:32:19;19.67;;;9.27;;
18867;SDS011;9563;49.240;9.088;2023-12-07T14:34:46;13.17;;;8.00;;
18867;SDS011;9563;49.240;9.088;2023-12-07T14:37:13;15.80;;;8.77;;
18867;SDS011;9563;49.240;9.088;2023-12-07T14:39:40;19.43;;;9.97;;
18867;SDS011;9563;49.240;9.088;2023-12-07T14:42:10;16.60;;;9.50;;
18867;SDS011;9563;49.240;9.088;2023-12-07T14:44:37;17.33;;;8.67;;
18867;SDS011;9563;49.240;9.088;2023-12-07T14:47:04;20.57;;;10.10;;
18867;SDS011;9563;49.240;9.088;2023-12-07T14:49:32;17.77;;;8.97;;
18867;SDS011;9563;49.240;9.088;2023-12-07T14:51:59;21.63;;;9.80;;
18867;SDS011;9563;49.240;9.088;2023-12-07T14:54:26;19.40;;;10.27;;
18867;SDS011;9563;49.240;9.088;2023-12-07T14:56:53;18.33;;;9.70;;
18867;SDS011;9563;49.240;9.088;2023-12-07T14:59:23;15.87;;;9.43;;
18867;SDS011;9563;49.240;9.088;2023-12-07T15:01:50;23.23;;;11.07;;
18867;SDS011;9563;49.240;9.088;2023-12-07T15:04:17;23.03;;;11.10;;
18867;SDS011;9563;49.240;9.088;2023-12-07T15:06:44;18.60;;;10.70;;
18867;SDS011;9563;49.240;9.088;2023-12-07T15:09:11;22.83;;;10.87;;
18867;SDS011;9563;49.240;9.088;2023-12-07T15:11:38;19.80;;;10.47;;
18867;SDS011;9563;49.240;9.088;2023-12-07T15:14:06;22.77;;;10.97;;
18867;SDS011;9563;49.240;9.088;2023-12-07T15:16:34;19.60;;;10.23;;
18867;SDS011;9563;49.240;9.088;2023-12-07T15:19:01;23.07;;;11.10;;
18867;SDS011;9563;49.240;9.088;2023-12-07T15:21:28;23.90;;;10.67;;
18867;SDS011;9563;49.240;9.088;2023-12-07T15:23:55;18.13;;;10.30;;
18867;SDS011;9563;49.240;9.088;2023-12-07T15:26:22;23.47;;;11.17;;
18867;SDS011;9563;49.240;9.088;2023-12-07T15:28:49;22.73;;;10.90;;
18867;SDS011;9563;49.240;9.088;2023-12-07T15:31:16;17.30;;;10.43;;
18867;SDS011;9563;49.240;9.088;2023-12-07T15:33:44;29.27;;;12.47;;
18867;SDS011;9563;49.240;9.088;2023-12-07T15:36:11;23.50;;;13.17;;
18867;SDS011;9563;49.240;9.088;2023-12-07T15:38:39;24.47;;;12.70;;
18867;SDS011;9563;49.240;9.088;2023-12-07T15:41:07;21.40;;;11.43;;
18867;SDS011;9563;49.240;9.088;2023-12-07T15:43:34;19.03;;;10.47;;
18867;SDS011;9563;49.240;9.088;2023-12-07T15:46:01;24.87;;;12.17;;
18867;SDS011;9563;49.240;9.088;2023-12-07T15:48:28;15.97;;;9.60;;
18867;SDS011;9563;49.240;9.088;2023-12-07T15:50:57;24.27;;;9.97;;
18867;SDS011;9563;49.240;9.088;2023-12-07T15:53:24;15.37;;;9.20;;
18867;SDS011;9563;49.240;9.088;2023-12-07T15:55:51;17.03;;;9.30;;
18867;SDS011;9563;49.240;9.088;2023-12-07T15:58:18;16.77;;;9.00;;
18867;SDS011;9563;49.240;9.088;2023-12-07T16:00:45;16.37;;;9.40;;
18867;SDS011;9563;49.240;9.088;2023-12-07T16:03:12;19.00;;;9.20;;
18867;SDS011;9563;49.240;9.088;2023-12-07T16:05:39;18.70;;;8.33;;
18867;SDS011;9563;49.240;9.088;2023-12-07T16:08:07;17.00;;;8.60;;
18867;SDS011;9563;49.240;9.088;2023-12-07T16:10:34;15.47;;;8.37;;
18867;SDS011;9563;49.240;9.088;2023-12-07T16:13:01;17.93;;;10.20;;
18867;SDS011;9563;49.240;9.088;2023-12-07T16:15:28;28.63;;;13.37;;
18867;SDS011;9563;49.240;9.088;2023-12-07T16:17:55;25.23;;;13.03;;
18867;SDS011;9563;49.240;9.088;2023-12-07T16:20:22;19.87;;;10.97;;
18867;SDS011;9563;49.240;9.088;2023-12-07T16:22:49;19.03;;;9.80;;
18867;SDS011;9563;49.240;9.088;2023-12-07T16:25:17;20.60;;;9.93;;
18867;SDS011;9563;49.240;9.088;2023-12-07T16:27:44;16.30;;;8.60;;
18867;SDS011;9563;49.240;9.088;2023-12-07T16:30:12;21.83;;;9.27;;
18867;SDS011;9563;49.240;9.088;2023-12-07T16:32:40;14.47;;;8.60;;
18867;SDS011;9563;49.240;9.088;2023-12-07T16:35:07;16.60;;;8.93;;
18867;SDS011;9563;49.240;9.088;2023-12-07T16:37:34;16.67;;;8.67;;
18867;SDS011;9563;49.240;9.088;2023-12-07T16:40:01;21.37;;;10.43;;
18867;SDS011;9563;49.240;9.088;2023-12-07T16:42:30;18.00;;;9.60;;
18867;SDS011;9563;49.240;9.088;2023-12-07T16:44:56;18.87;;;9.73;;
18867;SDS011;9563;49.240;9.088;2023-12-07T16:47:24;16.90;;;9.13;;
18867;SDS011;9563;49.240;9.088;2023-12-07T16:49:52;20.17;;;9.90;;
18867;SDS011;9563;49.240;9.088;2023-12-07T16:52:19;18.90;;;9.40;;
18867;SDS011;9563;49.240;9.088;2023-12-07T16:54:46;18.43;;;9.77;;
18867;SDS011;9563;49.240;9.088;2023-12-07T16:57:13;16.73;;;9.70;;
18867;SDS011;9563;49.240;9.088;2023-12-07T16:59:42;21.17;;;9.47;;
18867;SDS011;9563;49.240;9.088;2023-12-07T17:02:09;20.13;;;10.00;;
18867;SDS011;9563;49.240;9.088;2023-12-07T17:04:36;19.40;;;10.47;;
18867;SDS011;9563;49.240;9.088;2023-12-07T17:07:03;20.27;;;11.00;;
18867;SDS011;9563;49.240;9.088;2023-12-07T17:09:30;22.87;;;11.90;;
18867;SDS011;9563;49.240;9.088;2023-12-07T17:11:57;24.57;;;12.43;;
18867;SDS011;9563;49.240;9.088;2023-12-07T17:14:24;28.53;;;13.17;;
18867;SDS011;9563;49.240;9.088;2023-12-07T17:16:52;25.20;;;12.83;;
18867;SDS011;9563;49.240;9.088;2023-12-07T17:19:19;23.20;;;12.33;;
18867;SDS011;9563;49.240;9.088;2023-12-07T17:21:46;29.43;;;13.73;;
18867;SDS011;9563;49.240;9.088;2023-12-07T17:24:15;22.47;;;12.47;;
18867;SDS011;9563;49.240;9.088;2023-12-07T17:26:44;27.40;;;13.30;;
18867;SDS011;9563;49.240;9.088;2023-12-07T17:29:11;26.00;;;12.80;;
18867;SDS011;9563;49.240;9.088;2023-12-07T17:31:38;26.53;;;12.17;;
18867;SDS011;9563;49.240;9.088;2023-12-07T17:34:08;23.37;;;11.97;;
18867;SDS011;9563;49.240;9.088;2023-12-07T17:36:35;24.30;;;12.90;;
18867;SDS011;9563;49.240;9.088;2023-12-07T17:39:02;25.97;;;13.77;;
18867;SDS011;9563;49.240;9.088;2023-12-07T17:41:29;30.80;;;13.70;;
18867;SDS011;9563;49.240;9.088;2023-12-07T17:43:56;31.10;;;15.53;;
18867;SDS011;9563;49.240;9.088;2023-12-07T17:46:23;26.50;;;13.97;;
18867;SDS011;9563;49.240;9.088;2023-12-07T17:48:50;31.50;;;15.90;;
18867;SDS011;9563;49.240;9.088;2023-12-07T17:51:18;30.37;;;15.10;;
18867;SDS011;9563;49.240;9.088;2023-12-07T17:53:45;42.77;;;23.33;;
18867;SDS011;9563;49.240;9.088;2023-12-07T17:56:12;29.57;;;14.80;;
18867;SDS011;9563;49.240;9.088;2023-12-07T17:58:39;28.97;;;15.97;;
18867;SDS011;9563;49.240;9.088;2023-12-07T18:01:06;27.13;;;15.60;;
18867;SDS011;9563;49.240;9.088;2023-12-07T18:03:33;29.43;;;15.60;;
18867;SDS011;9563;49.240;9.088;2023-12-07T18:06:06;31.73;;;18.90;;
18867;SDS011;9563;49.240;9.088;2023-12-07T18:08:35;33.37;;;16.17;;
18867;SDS011;9563;49.240;9.088;2023-12-07T18:11:02;30.90;;;15.97;;
18867;SDS011;9563;49.240;9.088;2023-12-07T18:13:30;39.43;;;17.33;;
18867;SDS011;9563;49.240;9.088;2023-12-07T18:15:57;32.80;;;15.33;;
18867;SDS011;9563;49.240;9.088;2023-12-07T18:18:23;33.87;;;15.80;;
18867;SDS011;9563;49.240;9.088;2023-12-07T18:20:50;33.03;;;17.07;;
18867;SDS011;9563;49.240;9.088;2023-12-07T18:23:17;33.03;;;15.30;;
18867;SDS011;9563;49.240;9.088;2023-12-07T18:25:46;34.33;;;16.33;;
18867;SDS011;9563;49.240;9.088;2023-12-07T18:28:12;37.00;;;16.17;;
18867;SDS011;9563;49.240;9.088;2023-12-07T18:30:39;32.93;;;16.47;;
18867;SDS011;9563;49.240;9.088;2023-12-07T18:33:08;31.37;;;16.53;;
18867;SDS011;9563;49.240;9.088;2023-12-07T18:35:35;34.50;;;17.23;;
18867;SDS011;9563;49.240;9.088;2023-12-07T18:38:02;35.03;;;17.40;;
18867;SDS011;9563;49.240;9.088;2023-12-07T18:40:29;35.20;;;16.53;;
18867;SDS011;9563;49.240;9.088;2023-12-07T18:42:58;35.70;;;18.40;;
18867;SDS011;9563;49.240;9.088;2023-12-07T18:45:27;36.50;;;17.43;;
18867;SDS011;9563;49.240;9.088;2023-12-07T18:47:53;34.30;;;16.57;;
18867;SDS011;9563;49.240;9.088;2023-12-07T18:50:21;35.60;;;17.33;;
18867;SDS011;9563;49.240;9.088;2023-12-07T18:52:47;33.43;;;16.50;;
18867;SDS011;9563;49.240;9.088;2023-12-07T18:55:14;32.93;;;15.83;;
18867;SDS011;9563;49.240;9.088;2023-12-07T18:57:40;34.57;;;16.00;;
18867;SDS011;9563;49.240;9.088;2023-12-07T19:00:10;36.07;;;18.03;;
18867;SDS011;9563;49.240;9.088;2023-12-07T19:02:39;34.97;;;18.17;;
18867;SDS011;9563;49.240;9.088;2023-12-07T19:05:06;39.07;;;17.43;;
18867;SDS011;9563;49.240;9.088;2023-12-07T19:07:33;31.83;;;17.53;;
18867;SDS011;9563;49.240;9.088;2023-12-07T19:10:00;37.40;;;17.63;;
18867;SDS011;9563;49.240;9.088;2023-12-07T19:12:27;36.70;;;17.23;;
18867;SDS011;9563;49.240;9.088;2023-12-07T19:14:55;34.87;;;17.30;;
18867;SDS011;9563;49.240;9.088;2023-12-07T19:17:23;40.00;;;17.40;;
18867;SDS011;9563;49.240;9.088;2023-12-07T19:19:50;30.60;;;16.47;;
18867;SDS011;9563;49.240;9.088;2023-12-07T19:22:17;35.97;;;17.30;;
18867;SDS011;9563;49.240;9.088;2023-12-07T19:24:44;34.20;;;18.00;;
18867;SDS011;9563;49.240;9.088;2023-12-07T19:27:11;33.27;;;16.60;;
18867;SDS011;9563;49.240;9.088;2023-12-07T19:29:38;35.13;;;17.40;;
18867;SDS011;9563;49.240;9.088;2023-12-07T19:32:05;37.17;;;17.43;;
18867;SDS011;9563;49.240;9.088;2023-12-07T19:34:34;38.10;;;17.87;;
18867;SDS011;9563;49.240;9.088;2023-12-07T19:37:01;37.70;;;18.57;;
18867;SDS011;9563;49.240;9.088;2023-12-07T19:39:28;36.13;;;17.70;;
18867;SDS011;9563;49.240;9.088;2023-12-07T19:41:58;41.03;;;17.87;;